Terminal Aerodrome Forecast
Issued by NWS

Home | Current Version | Previous Version | Text Only | Print | Product List | Glossary On
Versions: 1 2 3 4 5 6 7 8 9 10 11 12 13 14 15 16 17 18 19 20 21 22
253
FTUS43 KGRR 030402 AAA
TAFMKG
TAF AMD
KMKG 030402Z 0304/0324 29006KT P6SM OVC020
     FM031400 28005KT P6SM -SHSN OVC015
     FM031700 28007KT 6SM -SHSN OVC025
     FM032100 28005KT P6SM BKN035=

USA.gov is the U.S. government's official web portal to all federal, state and local government web resources and services.